Time;durP1;ratioP1;P1;durP2;ratioP2;P2;SDS_P1;SDS_P2;PMS_P1;PMS_P2;Temp;Humidity;BMP_temperature;BMP_pressure;BME280_temperature;BME280_humidity;BME280_pressure;Samples;Min_cycle;Max_cycle;Signal;HPM_P1;HPM_P2
2021/12/03 00:01:30;;;;;;;12.27;3.80;;;0.40;99.90;;;;;;4957530;28;20491;-65
2021/12/03 00:03:56;;;;;;;13.73;4.63;;;0.40;99.90;;;;;;4963291;28;20027;-66
2021/12/03 00:06:22;;;;;;;13.52;5.85;;;0.30;99.90;;;;;;4959995;28;20051;-66
2021/12/03 00:08:48;;;;;;;10.35;5.95;;;0.30;99.90;;;;;;4950432;28;20426;-66
2021/12/03 00:11:15;;;;;;;11.95;6.28;;;0.40;99.90;;;;;;4959145;28;20051;-66
2021/12/03 00:13:42;;;;;;;14.50;6.63;;;0.40;99.90;;;;;;4954669;28;20467;-66
2021/12/03 00:16:10;;;;;;;15.15;7.05;;;0.40;99.90;;;;;;4965787;28;20058;-66
2021/12/03 00:18:36;;;;;;;12.55;6.68;;;0.40;99.90;;;;;;4958830;28;20118;-66
2021/12/03 00:21:04;;;;;;;16.70;7.18;;;0.40;99.90;;;;;;4965181;28;20579;-65
2021/12/03 00:23:31;;;;;;;12.70;6.57;;;0.40;99.90;;;;;;4939046;28;20517;-65
2021/12/03 00:26:00;;;;;;;13.70;6.82;;;0.50;99.90;;;;;;4962189;28;20130;-67
2021/12/03 00:28:29;;;;;;;14.90;5.47;;;0.50;99.90;;;;;;4956573;28;20042;-68
2021/12/03 00:30:56;;;;;;;12.48;5.43;;;0.50;99.90;;;;;;4961887;28;20050;-67
2021/12/03 00:33:21;;;;;;;10.80;5.25;;;0.50;99.90;;;;;;4959490;28;20050;-67
2021/12/03 00:35:47;;;;;;;11.68;5.15;;;0.60;99.90;;;;;;4949698;28;20109;-67
2021/12/03 00:38:15;;;;;;;14.00;4.82;;;0.50;99.90;;;;;;4945258;28;20399;-67
2021/12/03 00:40:41;;;;;;;8.07;4.93;;;0.50;99.90;;;;;;4963243;28;20051;-67
2021/12/03 00:43:08;;;;;;;9.63;4.53;;;0.60;99.90;;;;;;4958455;28;20066;-67
2021/12/03 00:45:34;;;;;;;7.88;4.30;;;0.60;99.90;;;;;;4961732;28;20039;-67
2021/12/03 00:48:02;;;;;;;11.63;4.85;;;0.60;99.90;;;;;;4938755;28;20093;-68
2021/12/03 00:50:29;;;;;;;7.32;4.65;;;0.50;99.90;;;;;;4958446;28;20051;-67
2021/12/03 00:52:55;;;;;;;13.45;4.95;;;0.60;99.90;;;;;;4962802;28;20489;-67
2021/12/03 00:55:23;;;;;;;12.70;5.72;;;0.60;99.90;;;;;;4953947;28;20050;-67
2021/12/03 00:57:49;;;;;;;14.25;5.93;;;0.60;99.90;;;;;;4962199;28;20050;-67
2021/12/03 01:00:23;;;;;;;15.57;7.00;;;0.60;99.90;;;;;;4936888;28;20039;-65
2021/12/03 01:02:49;;;;;;;12.95;6.30;;;0.70;99.90;;;;;;4963437;28;20114;-67
2021/12/03 01:05:15;;;;;;;11.50;6.28;;;0.60;99.90;;;;;;4943266;28;20392;-67
2021/12/03 01:07:41;;;;;;;15.65;7.90;;;0.70;99.90;;;;;;4965046;28;20051;-65
2021/12/03 01:10:07;;;;;;;15.70;7.78;;;0.70;99.90;;;;;;4961742;28;20189;-67
2021/12/03 01:12:34;;;;;;;12.20;8.20;;;0.70;99.90;;;;;;4963308;28;20053;-65
2021/12/03 01:15:00;;;;;;;19.70;8.63;;;0.70;99.90;;;;;;4959943;28;20539;-66
2021/12/03 01:17:26;;;;;;;19.13;9.13;;;0.70;99.90;;;;;;4943233;28;20057;-66
2021/12/03 01:19:52;;;;;;;15.65;8.77;;;0.70;99.90;;;;;;4943186;28;20065;-66
2021/12/03 01:22:17;;;;;;;17.45;8.63;;;0.70;99.90;;;;;;4966052;28;20875;-66
2021/12/03 01:24:44;;;;;;;15.55;8.93;;;0.60;99.90;;;;;;4955574;28;20042;-66
2021/12/03 01:27:10;;;;;;;13.90;9.90;;;0.60;99.90;;;;;;4946141;28;20167;-66
2021/12/03 01:29:36;;;;;;;16.30;9.68;;;0.70;99.90;;;;;;4958894;28;20046;-66
2021/12/03 01:32:02;;;;;;;18.58;10.25;;;0.70;99.90;;;;;;4963684;28;20039;-66
2021/12/03 01:34:27;;;;;;;15.40;8.65;;;0.70;99.90;;;;;;4969418;28;20114;-66
2021/12/03 01:36:53;;;;;;;18.27;10.50;;;0.70;99.90;;;;;;4947174;28;20142;-66
2021/12/03 01:39:19;;;;;;;20.67;11.25;;;0.70;99.90;;;;;;4961210;28;20376;-66
2021/12/03 01:41:45;;;;;;;18.67;11.18;;;0.70;99.90;;;;;;4957791;28;20035;-66
2021/12/03 01:44:11;;;;;;;17.20;11.15;;;0.70;99.90;;;;;;4963235;28;20027;-66
2021/12/03 01:46:37;;;;;;;20.38;11.60;;;0.70;99.90;;;;;;4963118;28;20094;-66
2021/12/03 01:49:04;;;;;;;17.73;12.02;;;0.70;99.90;;;;;;4944880;28;20057;-66
2021/12/03 01:51:30;;;;;;;20.63;12.77;;;0.70;99.90;;;;;;4959382;28;20090;-66
2021/12/03 01:53:56;;;;;;;19.50;13.43;;;0.70;99.90;;;;;;4947130;28;20054;-66
2021/12/03 01:56:22;;;;;;;21.27;13.88;;;0.80;99.90;;;;;;4963442;28;20042;-66
2021/12/03 01:58:50;;;;;;;20.48;13.15;;;0.70;99.90;;;;;;4965456;28;20051;-66
2021/12/03 02:01:19;;;;;;;24.92;14.98;;;0.70;99.90;;;;;;4961977;28;20043;-66
2021/12/03 02:03:52;;;;;;;23.50;14.77;;;0.70;99.90;;;;;;4947283;28;20632;-66
2021/12/03 02:06:19;;;;;;;21.52;14.80;;;0.80;99.90;;;;;;4962484;28;20665;-66
2021/12/03 02:08:45;;;;;;;17.98;14.90;;;0.70;99.90;;;;;;4968388;28;20157;-65
2021/12/03 02:11:12;;;;;;;17.90;13.80;;;0.70;99.90;;;;;;4960817;28;20458;-66
2021/12/03 02:13:38;;;;;;;23.27;15.45;;;0.80;99.90;;;;;;4965555;28;20050;-66
2021/12/03 02:16:05;;;;;;;24.27;15.27;;;0.80;99.90;;;;;;4969065;28;20145;-65
2021/12/03 02:18:31;;;;;;;20.33;14.25;;;0.70;99.90;;;;;;4944241;28;20055;-66
2021/12/03 02:20:59;;;;;;;20.75;14.43;;;0.70;99.90;;;;;;4967184;28;20463;-66
2021/12/03 02:23:26;;;;;;;21.60;14.35;;;0.70;99.90;;;;;;4939770;28;20054;-65
2021/12/03 02:25:53;;;;;;;18.27;13.90;;;0.70;99.90;;;;;;4968765;28;20051;-66
2021/12/03 02:28:21;;;;;;;22.17;13.27;;;0.70;99.90;;;;;;4942601;28;20043;-66
2021/12/03 02:30:48;;;;;;;18.02;13.20;;;0.70;99.90;;;;;;4951359;28;20395;-66
2021/12/03 02:33:14;;;;;;;18.58;13.32;;;0.80;99.90;;;;;;4962098;28;20043;-66
2021/12/03 02:35:40;;;;;;;21.65;13.63;;;0.80;99.90;;;;;;4968061;28;20395;-66
2021/12/03 02:38:11;;;;;;;17.63;12.95;;;0.80;99.90;;;;;;4973413;28;20043;-66
2021/12/03 02:40:37;;;;;;;18.48;13.70;;;0.80;99.90;;;;;;4963792;28;20121;-66
2021/12/03 02:43:04;;;;;;;17.63;13.45;;;0.80;99.90;;;;;;4964226;28;20369;-66
2021/12/03 02:45:29;;;;;;;20.83;13.55;;;0.80;99.90;;;;;;4966570;28;20039;-66
2021/12/03 02:47:58;;;;;;;17.02;12.57;;;0.80;99.90;;;;;;4963102;28;20062;-66
2021/12/03 02:50:26;;;;;;;17.75;12.77;;;0.90;99.90;;;;;;4948719;28;20035;-66
2021/12/03 02:52:52;;;;;;;16.88;12.90;;;0.90;99.90;;;;;;4957698;28;20047;-66
2021/12/03 02:55:18;;;;;;;15.10;12.68;;;0.90;99.90;;;;;;4945429;28;20055;-66
2021/12/03 02:57:45;;;;;;;16.67;12.35;;;0.90;99.90;;;;;;4963786;28;20038;-66
2021/12/03 03:00:14;;;;;;;23.23;12.82;;;0.80;99.90;;;;;;4956980;28;20050;-66
2021/12/03 03:02:41;;;;;;;17.55;11.98;;;0.90;99.90;;;;;;4961538;28;20047;-66
2021/12/03 03:05:09;;;;;;;17.17;12.55;;;0.80;99.90;;;;;;4941597;28;20186;-66
2021/12/03 03:07:35;;;;;;;15.93;12.35;;;0.80;99.90;;;;;;4963419;28;20050;-66
2021/12/03 03:10:03;;;;;;;17.95;13.13;;;0.80;99.90;;;;;;4964061;28;20039;-66
2021/12/03 03:12:29;;;;;;;18.08;12.77;;;0.80;99.90;;;;;;4961385;28;20049;-66
2021/12/03 03:14:58;;;;;;;16.23;13.00;;;0.80;99.90;;;;;;4959553;28;20121;-66
2021/12/03 03:17:27;;;;;;;17.60;12.65;;;0.80;99.90;;;;;;4963854;28;20034;-66
2021/12/03 03:19:55;;;;;;;15.98;12.55;;;0.80;99.90;;;;;;4941816;28;20045;-66
2021/12/03 03:22:22;;;;;;;17.77;13.55;;;0.80;99.90;;;;;;4933010;29;20055;-66
2021/12/03 03:24:49;;;;;;;16.45;12.95;;;0.80;99.90;;;;;;4960581;28;20219;-66
2021/12/03 03:27:15;;;;;;;17.52;13.40;;;0.80;99.90;;;;;;4967503;28;20070;-66
2021/12/03 03:29:44;;;;;;;15.88;12.65;;;0.80;99.90;;;;;;4956892;28;20047;-66
2021/12/03 03:32:10;;;;;;;15.55;13.05;;;0.80;99.90;;;;;;4966320;28;20746;-65
2021/12/03 03:34:36;;;;;;;19.80;13.85;;;0.80;99.90;;;;;;4959109;28;22570;-66
2021/12/03 03:37:02;;;;;;;17.85;14.10;;;0.80;99.90;;;;;;4963179;28;20700;-65
2021/12/03 03:39:28;;;;;;;17.50;13.10;;;0.80;99.90;;;;;;4966390;28;20049;-65
2021/12/03 03:41:54;;;;;;;18.50;13.75;;;0.80;99.90;;;;;;4941270;28;20403;-66
2021/12/03 03:44:20;;;;;;;19.52;13.52;;;0.80;99.90;;;;;;4966761;28;20027;-65
2021/12/03 03:46:48;;;;;;;16.73;13.20;;;0.80;99.90;;;;;;4940722;28;20291;-65
2021/12/03 03:49:14;;;;;;;16.88;13.15;;;0.80;99.90;;;;;;4963671;28;20070;-65
2021/12/03 03:51:40;;;;;;;17.92;13.95;;;0.80;99.90;;;;;;4958155;28;20468;-65
2021/12/03 03:54:06;;;;;;;14.48;12.98;;;0.80;99.90;;;;;;4962753;28;20053;-65
2021/12/03 03:56:33;;;;;;;14.93;12.90;;;0.80;99.90;;;;;;4960334;28;20551;-65
2021/12/03 03:58:58;;;;;;;19.70;13.30;;;0.70;99.90;;;;;;4948109;28;20402;-65
2021/12/03 04:01:24;;;;;;;20.88;13.60;;;0.80;99.90;;;;;;4956349;28;20042;-65
2021/12/03 04:03:50;;;;;;;16.90;13.63;;;0.80;99.90;;;;;;4967464;28;20050;-65
2021/12/03 04:06:19;;;;;;;20.55;13.63;;;0.80;99.90;;;;;;4956588;28;20047;-65
2021/12/03 04:08:47;;;;;;;18.77;13.07;;;0.70;99.90;;;;;;4946659;28;20059;-65
2021/12/03 04:11:15;;;;;;;15.82;12.45;;;0.70;99.90;;;;;;4958715;28;20463;-65
2021/12/03 04:13:42;;;;;;;18.35;13.43;;;0.70;99.90;;;;;;4962095;28;20557;-65
2021/12/03 04:16:08;;;;;;;17.85;12.32;;;0.70;99.90;;;;;;4954530;28;20406;-66
2021/12/03 04:18:34;;;;;;;16.98;12.73;;;0.70;99.90;;;;;;4962244;28;20039;-65
2021/12/03 04:21:00;;;;;;;16.27;12.18;;;0.70;99.90;;;;;;4963081;28;20046;-65
2021/12/03 04:23:26;;;;;;;18.10;12.63;;;0.70;99.90;;;;;;4956211;28;20513;-65
2021/12/03 04:25:53;;;;;;;18.35;13.25;;;0.70;99.90;;;;;;4961028;28;20127;-65
2021/12/03 04:28:20;;;;;;;16.45;12.23;;;0.70;99.90;;;;;;4941290;28;20051;-65
2021/12/03 04:30:47;;;;;;;16.02;12.20;;;0.70;99.90;;;;;;4946258;28;20042;-65
2021/12/03 04:33:13;;;;;;;17.73;13.70;;;0.70;99.90;;;;;;4947026;28;20081;-65
2021/12/03 04:35:39;;;;;;;19.77;13.02;;;0.60;99.90;;;;;;4963991;28;20443;-65
2021/12/03 04:38:06;;;;;;;14.68;13.07;;;0.60;99.90;;;;;;4946174;28;20134;-65
2021/12/03 04:40:33;;;;;;;20.30;12.98;;;0.60;99.90;;;;;;4959888;28;20043;-65
2021/12/03 04:42:59;;;;;;;18.73;12.43;;;0.70;99.90;;;;;;4953699;28;20031;-66
2021/12/03 04:45:27;;;;;;;20.58;12.98;;;0.60;99.90;;;;;;4962307;28;20035;-65
2021/12/03 04:47:54;;;;;;;18.02;13.00;;;0.60;99.90;;;;;;4945547;28;20058;-65
2021/12/03 04:50:22;;;;;;;17.20;13.48;;;0.60;99.90;;;;;;4947832;28;20058;-66
2021/12/03 04:52:49;;;;;;;18.60;13.40;;;0.60;99.90;;;;;;4960549;28;20058;-66
2021/12/03 04:55:16;;;;;;;20.67;12.30;;;0.60;99.90;;;;;;4960777;28;20031;-66
2021/12/03 04:57:42;;;;;;;17.17;12.98;;;0.60;99.90;;;;;;4960672;28;20052;-68
2021/12/03 05:00:13;;;;;;;20.58;12.57;;;0.60;99.90;;;;;;4945663;28;20043;-66
2021/12/03 05:02:39;;;;;;;17.45;13.43;;;0.60;99.90;;;;;;4965609;28;20050;-66
2021/12/03 05:05:06;;;;;;;19.10;13.00;;;0.60;99.90;;;;;;4961667;28;20546;-66
2021/12/03 05:10:06;;;;;;;19.05;12.23;;;0.60;99.90;;;;;;4961703;28;20090;-66
2021/12/03 05:12:33;;;;;;;17.25;12.60;;;0.60;99.90;;;;;;4966558;28;20046;-67
2021/12/03 05:14:59;;;;;;;19.35;13.38;;;0.60;99.90;;;;;;4958655;28;20031;-67
2021/12/03 05:17:24;;;;;;;21.55;12.55;;;0.60;99.90;;;;;;4967854;28;20043;-66
2021/12/03 05:19:51;;;;;;;21.02;13.18;;;0.60;99.90;;;;;;4964042;28;20054;-66
2021/12/03 05:22:17;;;;;;;14.35;12.40;;;0.60;99.90;;;;;;4951272;28;20043;-66
2021/12/03 05:24:45;;;;;;;15.77;12.18;;;0.60;99.90;;;;;;4962233;28;20043;-66
2021/12/03 05:27:18;;;;;;;15.48;12.27;;;0.60;99.90;;;;;;4963610;28;20054;-66
2021/12/03 05:29:46;;;;;;;17.58;11.98;;;0.70;99.90;;;;;;4944373;28;20062;-66
2021/12/03 05:32:12;;;;;;;15.38;13.00;;;0.70;99.90;;;;;;4961389;28;20039;-66
2021/12/03 05:34:39;;;;;;;20.38;13.32;;;0.70;99.90;;;;;;4954863;28;20090;-66
2021/12/03 05:37:08;;;;;;;20.63;12.40;;;0.80;99.90;;;;;;4969473;28;20042;-66
2021/12/03 05:39:35;;;;;;;17.77;13.23;;;0.70;99.90;;;;;;4944849;28;20054;-66
2021/12/03 05:42:01;;;;;;;16.15;12.80;;;0.70;99.90;;;;;;4963148;28;20145;-66
2021/12/03 05:44:29;;;;;;;17.90;13.02;;;0.80;99.90;;;;;;4958519;28;20150;-67
2021/12/03 05:46:59;;;;;;;20.25;13.15;;;0.70;99.90;;;;;;4953869;28;20483;-66
2021/12/03 05:49:25;;;;;;;19.13;13.95;;;0.70;99.90;;;;;;4967330;28;20047;-66
2021/12/03 05:51:51;;;;;;;18.20;13.88;;;0.80;99.90;;;;;;4958254;28;20039;-66
2021/12/03 05:54:18;;;;;;;18.90;12.52;;;0.80;99.90;;;;;;4964737;28;20484;-66
2021/12/03 05:56:44;;;;;;;16.67;12.30;;;0.80;99.90;;;;;;4962049;28;20051;-66
2021/12/03 05:59:10;;;;;;;17.08;13.35;;;0.80;99.90;;;;;;4964481;28;20062;-66
2021/12/03 06:01:35;;;;;;;14.90;11.80;;;0.80;99.90;;;;;;4960716;28;20788;-66
2021/12/03 06:04:01;;;;;;;14.52;11.20;;;0.80;99.90;;;;;;4968129;28;20047;-67
2021/12/03 06:06:27;;;;;;;17.63;13.07;;;0.80;99.90;;;;;;4961720;28;20050;-66
2021/12/03 06:08:53;;;;;;;15.93;11.55;;;0.90;99.90;;;;;;4965982;28;20050;-66
2021/12/03 06:11:18;;;;;;;17.52;12.00;;;0.90;99.90;;;;;;4953545;28;20102;-66
2021/12/03 06:13:45;;;;;;;15.30;10.50;;;0.90;99.90;;;;;;4963408;28;20062;-66
2021/12/03 06:16:12;;;;;;;16.13;12.48;;;0.90;99.90;;;;;;4962284;28;20038;-66
2021/12/03 06:18:39;;;;;;;15.55;11.02;;;0.90;99.90;;;;;;4966081;28;20082;-66
2021/12/03 06:21:08;;;;;;;13.77;10.50;;;0.90;99.90;;;;;;4958055;28;20054;-67
2021/12/03 06:23:35;;;;;;;19.23;10.75;;;0.90;99.90;;;;;;4962792;28;20122;-66
2021/12/03 06:26:01;;;;;;;19.25;11.82;;;1.00;99.90;;;;;;4960750;28;20047;-67
2021/12/03 06:28:29;;;;;;;19.20;11.68;;;1.00;99.90;;;;;;4943021;28;20085;-66
2021/12/03 06:30:55;;;;;;;14.75;10.65;;;1.00;99.90;;;;;;4946430;28;20110;-66
2021/12/03 06:33:21;;;;;;;15.55;10.73;;;1.00;99.90;;;;;;4962326;28;20038;-66
2021/12/03 06:35:48;;;;;;;18.80;11.45;;;1.00;99.90;;;;;;4930708;28;20039;-66
2021/12/03 06:38:15;;;;;;;15.75;9.70;;;1.10;99.90;;;;;;4944524;28;20063;-66
2021/12/03 06:40:42;;;;;;;15.80;9.55;;;1.10;99.90;;;;;;4944938;28;20480;-66
2021/12/03 06:43:08;;;;;;;12.35;9.00;;;1.10;99.90;;;;;;4957285;28;20031;-66
2021/12/03 06:45:33;;;;;;;15.65;9.10;;;1.20;99.90;;;;;;4963607;28;20093;-66
2021/12/03 06:47:59;;;;;;;14.82;8.73;;;1.30;99.90;;;;;;4961421;28;20704;-66
2021/12/03 06:50:25;;;;;;;16.92;9.10;;;1.30;99.90;;;;;;4948064;28;20055;-66
2021/12/03 06:53:02;;;;;;;15.95;8.68;;;1.40;99.90;;;;;;4946025;28;20096;-66
2021/12/03 06:55:28;;;;;;;14.95;9.20;;;1.40;99.90;;;;;;4964857;28;20042;-66
2021/12/03 06:57:54;;;;;;;15.52;8.48;;;1.50;99.90;;;;;;4932839;28;20047;-66
2021/12/03 07:00:22;;;;;;;15.98;9.30;;;1.50;99.90;;;;;;4948816;28;20089;-66
2021/12/03 07:02:48;;;;;;;13.38;9.60;;;1.60;99.90;;;;;;4956755;28;20047;-65
2021/12/03 07:05:14;;;;;;;14.30;9.50;;;1.60;99.90;;;;;;4945108;28;20071;-65
2021/12/03 07:07:41;;;;;;;15.43;10.18;;;1.70;99.90;;;;;;4962160;28;20428;-65
2021/12/03 07:10:08;;;;;;;19.00;9.95;;;1.70;99.90;;;;;;4966850;28;20458;-65
2021/12/03 07:12:34;;;;;;;16.63;9.80;;;1.70;99.90;;;;;;4964324;28;20050;-65
2021/12/03 07:15:00;;;;;;;16.38;9.80;;;1.70;99.90;;;;;;4957225;28;20030;-65
2021/12/03 07:17:30;;;;;;;16.88;11.02;;;1.70;99.90;;;;;;4963556;28;20491;-65
2021/12/03 07:19:57;;;;;;;20.80;10.55;;;1.70;99.90;;;;;;4942607;28;20054;-65
2021/12/03 07:22:27;;;;;;;18.98;11.18;;;1.70;99.90;;;;;;4948954;28;20047;-65
2021/12/03 07:24:53;;;;;;;19.83;10.13;;;1.60;99.90;;;;;;4940381;28;20058;-65
2021/12/03 07:27:20;;;;;;;16.17;9.77;;;1.70;99.90;;;;;;4964209;28;20065;-66
2021/12/03 07:29:47;;;;;;;17.42;10.70;;;1.70;99.90;;;;;;4958189;28;20043;-65
2021/12/03 07:32:19;;;;;;;19.27;10.60;;;1.80;99.90;;;;;;4964354;28;20070;-65
2021/12/03 07:34:45;;;;;;;19.02;10.70;;;1.80;99.90;;;;;;4960737;28;20450;-65
2021/12/03 07:37:11;;;;;;;15.95;10.35;;;1.80;99.90;;;;;;4964049;28;20058;-65
2021/12/03 07:39:37;;;;;;;22.35;11.32;;;1.80;99.90;;;;;;4955701;28;20459;-65
2021/12/03 07:42:04;;;;;;;18.67;11.68;;;1.80;99.90;;;;;;4945613;28;20042;-65
2021/12/03 07:44:30;;;;;;;21.73;12.23;;;1.80;99.90;;;;;;4957349;28;20596;-66
2021/12/03 07:46:56;;;;;;;17.98;12.05;;;1.80;99.90;;;;;;4963082;28;20201;-65
2021/12/03 07:49:23;;;;;;;19.23;11.63;;;1.80;99.90;;;;;;4957518;28;20062;-66
2021/12/03 07:51:49;;;;;;;21.20;10.73;;;1.80;99.90;;;;;;4947030;28;20445;-66
2021/12/03 07:54:15;;;;;;;14.23;10.52;;;1.80;99.90;;;;;;4962589;28;20045;-66
2021/12/03 07:56:41;;;;;;;20.48;11.75;;;1.90;99.90;;;;;;4957514;28;20047;-66
2021/12/03 07:59:06;;;;;;;18.27;11.10;;;1.90;99.90;;;;;;4960746;28;20052;-66
2021/12/03 08:01:35;;;;;;;19.80;12.35;;;1.90;99.90;;;;;;4938199;28;20046;-65
2021/12/03 08:04:01;;;;;;;23.77;12.02;;;1.90;99.90;;;;;;4959168;28;20118;-65
2021/12/03 08:06:27;;;;;;;20.45;12.40;;;1.90;99.90;;;;;;4941167;28;20199;-65
2021/12/03 08:08:53;;;;;;;18.92;11.90;;;1.90;99.90;;;;;;4960322;28;20518;-65
2021/12/03 08:11:18;;;;;;;22.55;13.40;;;1.90;99.90;;;;;;4957756;28;20038;-65
2021/12/03 08:13:44;;;;;;;24.95;14.25;;;2.00;99.90;;;;;;4960736;28;20362;-65
2021/12/03 08:16:10;;;;;;;22.90;13.40;;;2.00;99.90;;;;;;4955186;28;20051;-65
2021/12/03 08:18:36;;;;;;;20.38;14.43;;;2.00;99.90;;;;;;4961763;28;20054;-65
2021/12/03 08:21:03;;;;;;;26.60;16.17;;;2.00;99.90;;;;;;4960271;28;20031;-65
2021/12/03 08:23:30;;;;;;;26.05;16.55;;;2.00;99.90;;;;;;4959598;28;20078;-65
2021/12/03 08:25:55;;;;;;;27.77;17.63;;;2.00;99.90;;;;;;4942977;28;20054;-65
2021/12/03 08:28:21;;;;;;;30.02;18.15;;;2.00;99.90;;;;;;4966406;28;20045;-65
2021/12/03 08:30:47;;;;;;;31.92;18.55;;;2.10;99.90;;;;;;4959509;28;20031;-65
2021/12/03 08:33:13;;;;;;;28.77;19.30;;;2.10;99.90;;;;;;4962828;28;20031;-65
2021/12/03 08:35:39;;;;;;;30.80;21.08;;;2.10;99.90;;;;;;4963588;28;20528;-65
2021/12/03 08:38:05;;;;;;;31.38;20.42;;;2.10;99.90;;;;;;4954270;28;20376;-65
2021/12/03 08:40:31;;;;;;;39.55;22.48;;;2.10;99.90;;;;;;4948530;28;20047;-65
2021/12/03 08:42:57;;;;;;;34.67;20.55;;;2.20;99.90;;;;;;4956145;28;20038;-65
2021/12/03 08:45:22;;;;;;;32.63;22.55;;;2.20;99.90;;;;;;4961522;28;20042;-65
2021/12/03 08:47:57;;;;;;;33.97;23.02;;;2.20;99.90;;;;;;4952893;28;20075;-65
2021/12/03 08:50:29;;;;;;;32.67;22.35;;;2.30;99.90;;;;;;4964191;28;20041;-65
2021/12/03 08:55:48;;;;;;;34.35;22.52;;;2.30;99.90;;;;;;4942540;28;20074;-66
2021/12/03 08:58:16;;;;;;;38.42;23.38;;;2.30;99.90;;;;;;4956935;28;20094;-65
2021/12/03 09:00:43;;;;;;;41.95;24.25;;;2.40;99.90;;;;;;4963924;28;20053;-65
2021/12/03 09:03:09;;;;;;;37.90;23.77;;;2.40;99.90;;;;;;4952784;28;20472;-65
2021/12/03 09:05:37;;;;;;;39.30;24.00;;;2.40;99.90;;;;;;4962382;28;20094;-65
2021/12/03 09:08:03;;;;;;;40.00;23.52;;;2.40;99.90;;;;;;4955710;28;20058;-65
2021/12/03 09:10:29;;;;;;;37.72;24.52;;;2.40;99.90;;;;;;4964812;28;20039;-65
2021/12/03 09:12:55;;;;;;;44.50;25.30;;;2.40;99.90;;;;;;4955987;28;20039;-65
2021/12/03 09:15:28;;;;;;;42.28;22.88;;;2.50;99.90;;;;;;4962437;28;20039;-65
2021/12/03 09:18:16;;;;;;;40.63;23.08;;;2.50;99.90;;;;;;4955949;28;20573;-65
2021/12/03 09:20:58;;;;;;;40.17;24.52;;;2.50;99.90;;;;;;4964025;28;20052;-65
2021/12/03 09:23:36;;;;;;;41.45;23.85;;;2.50;99.90;;;;;;4943116;28;20059;-65
2021/12/03 09:26:20;;;;;;;45.67;24.73;;;2.60;99.90;;;;;;4944538;28;20446;-65
2021/12/03 09:28:52;;;;;;;39.60;23.92;;;2.60;99.90;;;;;;4941233;28;20050;-65
2021/12/03 09:31:18;;;;;;;38.33;23.90;;;2.70;99.90;;;;;;4944616;28;20059;-65
2021/12/03 09:33:47;;;;;;;37.60;22.33;;;2.60;99.90;;;;;;4959057;28;20746;-65
2021/12/03 09:36:13;;;;;;;40.60;22.70;;;2.70;99.90;;;;;;4961427;28;20047;-64
2021/12/03 09:38:39;;;;;;;39.13;23.67;;;2.70;99.90;;;;;;4942867;28;20062;-64
2021/12/03 09:41:08;;;;;;;39.10;21.60;;;2.70;99.90;;;;;;4969163;28;20045;-66
2021/12/03 09:43:36;;;;;;;37.58;22.77;;;2.80;99.90;;;;;;4957485;28;20050;-65
2021/12/03 09:51:26;;;;;;;33.78;20.88;;;2.90;99.90;;;;;;4962367;28;20058;-65
2021/12/03 09:56:25;;;;;;;32.20;19.00;;;3.10;99.90;;;;;;4964984;28;20058;-65
2021/12/03 10:15:33;;;;;;;28.65;13.90;;;3.40;99.90;;;;;;4961903;28;20154;-65
2021/12/03 10:18:20;;;;;;;24.98;13.23;;;3.40;99.90;;;;;;4962532;28;20104;-65
2021/12/03 10:20:55;;;;;;;24.23;12.63;;;3.50;99.90;;;;;;4959852;28;20051;-65
2021/12/03 10:36:58;;;;;;;22.67;9.27;;;3.50;99.90;;;;;;4958916;28;20075;-65
2021/12/03 10:45:25;;;;;;;25.13;8.95;;;3.50;99.90;;;;;;4965749;28;20089;-65
2021/12/03 11:12:38;;;;;;;20.30;7.20;;;3.70;99.90;;;;;;4947332;28;20055;-65
2021/12/03 11:42:21;;;;;;;13.10;4.40;;;3.60;99.90;;;;;;4948657;28;20106;-65
2021/12/03 11:48:03;;;;;;;12.93;4.78;;;3.60;99.90;;;;;;4945131;28;20043;-65
2021/12/03 12:58:09;;;;;;;11.10;4.07;;;3.30;99.90;;;;;;4942051;28;20095;-64
2021/12/03 13:42:55;;;;;;;14.52;5.47;;;3.60;99.90;;;;;;4967107;28;20075;-65
2021/12/03 14:44:19;;;;;;;10.23;4.78;;;3.90;99.90;;;;;;4964148;28;20456;-64
2021/12/03 14:55:45;;;;;;;9.57;4.65;;;4.00;99.90;;;;;;4961999;28;20105;-64
2021/12/03 14:58:21;;;;;;;10.15;4.40;;;4.10;99.90;;;;;;4964369;28;20387;-64
2021/12/03 15:00:56;;;;;;;13.30;4.90;;;4.10;99.90;;;;;;4959712;28;20047;-64
2021/12/03 15:04:11;;;;;;;8.20;4.78;;;4.10;99.90;;;;;;4965191;28;20057;-64
2021/12/03 15:09:00;;;;;;;9.77;4.22;;;4.20;99.90;;;;;;4950621;28;20058;-64
2021/12/03 15:20:09;;;;;;;9.00;4.55;;;4.30;99.90;;;;;;4939814;28;20105;-64
2021/12/03 15:41:02;;;;;;;6.97;4.50;;;4.40;99.90;;;;;;4967617;28;20055;-64
2021/12/03 16:08:31;;;;;;;8.90;5.40;;;4.40;99.90;;;;;;4968460;28;20046;-64
2021/12/03 16:11:11;;;;;;;11.45;6.15;;;4.40;99.90;;;;;;4965327;28;20031;-64
2021/12/03 16:51:10;;;;;;;10.90;7.90;;;4.50;99.90;;;;;;4954085;28;20062;-64
2021/12/03 16:53:36;;;;;;;8.95;7.05;;;4.50;99.90;;;;;;4966619;28;20491;-64
2021/12/03 16:56:12;;;;;;;11.07;8.90;;;4.50;99.90;;;;;;4956725;28;20040;-64
2021/12/03 16:58:42;;;;;;;11.32;8.32;;;4.50;99.90;;;;;;4969678;28;20050;-65
2021/12/03 17:01:34;;;;;;;10.57;8.52;;;4.50;99.90;;;;;;4944571;28;20051;-65
2021/12/03 17:45:48;;;;;;;24.45;22.02;;;4.50;99.90;;;;;;4874164;29;20496;-64
2021/12/03 17:53:19;;;;;;;18.15;16.33;;;4.50;99.90;;;;;;4960907;28;20126;-64
2021/12/03 17:56:03;;;;;;;18.05;14.93;;;4.40;99.90;;;;;;4965782;28;20055;-64
2021/12/03 17:58:32;;;;;;;18.20;15.65;;;4.50;99.90;;;;;;4961209;28;20042;-64
2021/12/03 18:49:31;;;;;;;23.30;20.83;;;4.50;99.90;;;;;;4964893;28;20062;-64
2021/12/03 18:54:52;;;;;;;25.07;22.47;;;4.60;99.90;;;;;;4965273;28;20383;-65
2021/12/03 18:57:20;;;;;;;24.95;22.25;;;4.50;99.90;;;;;;4963006;28;20050;-64
2021/12/03 19:00:00;;;;;;;23.83;21.33;;;4.50;99.90;;;;;;4965204;28;20055;-64
2021/12/03 19:02:26;;;;;;;23.98;20.10;;;4.60;99.90;;;;;;4964060;28;20039;-64
2021/12/03 19:07:27;;;;;;;26.45;23.70;;;4.60;99.90;;;;;;4954336;28;20086;-64
2021/12/03 19:09:55;;;;;;;25.88;21.20;;;4.60;99.90;;;;;;4967920;28;20160;-64
2021/12/03 19:12:24;;;;;;;28.30;22.90;;;4.60;99.90;;;;;;4956944;28;20491;-64
2021/12/03 19:14:53;;;;;;;26.98;24.05;;;4.60;99.90;;;;;;4974002;28;20047;-64
2021/12/03 19:17:19;;;;;;;27.52;23.83;;;4.60;99.90;;;;;;4956195;28;20048;-64
2021/12/03 19:19:46;;;;;;;29.80;23.30;;;4.60;99.90;;;;;;4960043;28;20043;-64
2021/12/03 19:22:14;;;;;;;28.98;24.15;;;4.60;99.90;;;;;;4958977;28;20062;-64
2021/12/03 19:24:40;;;;;;;28.30;24.23;;;4.60;99.90;;;;;;4962790;28;20083;-64
2021/12/03 19:27:08;;;;;;;31.08;24.52;;;4.60;99.90;;;;;;4938954;28;20061;-64
2021/12/03 19:29:33;;;;;;;28.10;24.20;;;4.60;99.90;;;;;;4966854;28;20117;-64
2021/12/03 19:31:59;;;;;;;27.83;23.73;;;4.60;99.90;;;;;;4960708;28;20126;-64
2021/12/03 19:34:26;;;;;;;26.42;22.85;;;4.60;99.90;;;;;;4947416;28;20030;-64
2021/12/03 19:36:53;;;;;;;28.92;23.88;;;4.60;99.90;;;;;;4961008;28;20051;-64
2021/12/03 19:39:20;;;;;;;26.33;23.40;;;4.70;99.90;;;;;;4962428;28;20097;-65
2021/12/03 19:44:18;;;;;;;27.52;23.75;;;4.70;99.90;;;;;;4963289;28;20039;-64
2021/12/03 19:46:48;;;;;;;28.17;23.13;;;4.70;99.90;;;;;;4966984;28;20042;-65
2021/12/03 19:51:52;;;;;;;26.92;22.70;;;4.70;99.90;;;;;;4967945;28;20051;-64
2021/12/03 19:54:19;;;;;;;25.88;22.58;;;4.70;99.90;;;;;;4954326;28;20407;-64
2021/12/03 19:56:45;;;;;;;26.30;22.42;;;4.70;99.90;;;;;;4967014;28;20050;-64
2021/12/03 19:59:11;;;;;;;26.90;22.92;;;4.70;99.90;;;;;;4955724;28;20050;-64
2021/12/03 20:01:38;;;;;;;25.85;22.85;;;4.70;99.90;;;;;;4961047;28;20398;-64
2021/12/03 20:04:07;;;;;;;28.23;22.42;;;4.60;99.90;;;;;;4958721;28;20121;-64
2021/12/03 20:06:35;;;;;;;27.08;23.15;;;4.70;99.90;;;;;;4961544;28;20046;-64
2021/12/03 20:09:03;;;;;;;27.77;22.65;;;4.70;99.90;;;;;;4960003;28;20709;-65
2021/12/03 20:11:45;;;;;;;30.25;23.75;;;4.70;99.90;;;;;;4964347;28;20058;-64
2021/12/03 20:14:13;;;;;;;31.83;25.52;;;4.70;99.90;;;;;;4954843;28;20051;-64
2021/12/03 20:16:50;;;;;;;29.73;23.10;;;4.60;99.90;;;;;;4967453;28;20063;-64
2021/12/03 20:19:38;;;;;;;31.67;24.35;;;4.70;99.90;;;;;;4956917;28;20391;-64
2021/12/03 20:27:03;;;;;;;34.13;25.77;;;4.70;99.90;;;;;;4962999;28;20039;-64
2021/12/03 20:32:34;;;;;;;31.48;24.67;;;4.70;99.90;;;;;;4961180;28;20050;-64
2021/12/03 20:37:34;;;;;;;31.20;24.95;;;4.70;99.90;;;;;;4961649;28;20151;-64
2021/12/03 20:40:06;;;;;;;;;;;4.70;99.90;;;;;;4954936;28;20496;-64
2021/12/03 20:42:39;;;;;;;27.27;21.55;;;4.70;99.90;;;;;;4942276;28;19968;-64
2021/12/03 20:45:25;;;;;;;27.73;21.63;;;4.70;99.90;;;;;;4955279;28;20372;-64
2021/12/03 21:09:25;;;;;;;26.15;21.77;;;4.70;99.90;;;;;;4963452;28;20043;-64
2021/12/03 21:11:56;;;;;;;26.02;20.65;;;4.70;99.90;;;;;;4958159;28;20126;-64
2021/12/03 21:14:27;;;;;;;24.00;19.33;;;4.70;99.90;;;;;;4946702;28;20050;-64
2021/12/03 21:19:29;;;;;;;24.50;20.83;;;4.70;99.90;;;;;;4966120;28;20145;-64